createdAt,value
2022-12-04T00:00:04.915Z,500.00
2022-12-04T00:00:34.924Z,500.00
2022-12-04T00:01:04.948Z,501.00
2022-12-04T00:01:34.956Z,501.00
2022-12-04T00:02:04.953Z,500.00
2022-12-04T00:02:35.043Z,500.00
2022-12-04T00:03:05.108Z,498.00
2022-12-04T00:03:35.141Z,498.00
2022-12-04T00:04:05.130Z,498.00
2022-12-04T00:04:35.235Z,498.00
2022-12-04T00:05:05.267Z,498.00
2022-12-04T00:05:35.300Z,497.00
2022-12-04T00:06:05.311Z,496.00
2022-12-04T00:06:35.330Z,497.00
2022-12-04T00:07:05.318Z,497.00
2022-12-04T00:07:35.444Z,500.00
2022-12-04T00:08:05.430Z,501.00
2022-12-04T00:08:35.435Z,500.00
2022-12-04T00:09:05.442Z,500.00
2022-12-04T00:09:35.443Z,501.00
2022-12-04T00:10:05.438Z,503.00
2022-12-04T00:10:35.454Z,503.00
2022-12-04T00:11:05.465Z,504.00
2022-12-04T00:11:35.465Z,505.00
2022-12-04T00:12:05.471Z,502.00
2022-12-04T00:12:35.470Z,501.00
2022-12-04T00:13:05.481Z,500.00
2022-12-04T00:13:35.493Z,499.00
2022-12-04T00:14:07.475Z,500.00
2022-12-04T00:14:49.053Z,501.00
2022-12-04T00:15:35.795Z,500.00
2022-12-04T00:16:05.908Z,501.00
2022-12-04T00:16:36.028Z,502.00
2022-12-04T00:17:05.873Z,503.00
2022-12-04T00:17:35.876Z,501.00
2022-12-04T00:18:05.884Z,501.00
2022-12-04T00:18:35.913Z,500.00
2022-12-04T00:19:05.937Z,498.00
2022-12-04T00:19:35.918Z,501.00
2022-12-04T00:20:05.928Z,501.00
2022-12-04T00:20:36.021Z,504.00
2022-12-04T00:21:06.108Z,505.00
2022-12-04T00:21:36.200Z,505.00
2022-12-04T00:22:06.276Z,504.00
2022-12-04T00:22:36.355Z,504.00
2022-12-04T00:23:06.436Z,504.00
2022-12-04T00:23:36.519Z,504.00
2022-12-04T00:24:06.607Z,504.00
2022-12-04T00:24:36.670Z,504.00
2022-12-04T00:25:06.744Z,504.00
2022-12-04T00:25:41.198Z,502.00
2022-12-04T00:26:06.894Z,503.00
2022-12-04T00:26:36.980Z,501.00
2022-12-04T00:27:07.058Z,501.00
2022-12-04T00:27:37.147Z,501.00
2022-12-04T00:28:07.241Z,497.00
2022-12-04T00:28:37.318Z,496.00
2022-12-04T00:29:07.391Z,496.00
2022-12-04T00:29:37.489Z,494.00
2022-12-04T00:30:07.563Z,494.00
2022-12-04T00:30:37.572Z,496.00
2022-12-04T00:31:07.636Z,499.00
2022-12-04T00:31:37.650Z,500.00
2022-12-04T00:32:07.762Z,500.00
2022-12-04T00:32:37.682Z,498.00
2022-12-04T00:33:07.707Z,499.00
2022-12-04T00:33:37.715Z,499.00
2022-12-04T00:34:08.373Z,499.00
2022-12-04T00:34:37.776Z,499.00
2022-12-04T00:35:07.754Z,498.00
2022-12-04T00:35:37.767Z,497.00
2022-12-04T00:36:07.773Z,498.00
2022-12-04T00:36:37.775Z,499.00
2022-12-04T00:37:07.774Z,499.00
2022-12-04T00:37:37.781Z,498.00
2022-12-04T00:38:07.827Z,496.00
2022-12-04T00:38:37.833Z,497.00
2022-12-04T00:39:07.847Z,496.00
2022-12-04T00:39:37.852Z,496.00
2022-12-04T00:40:07.850Z,496.00
2022-12-04T00:40:37.864Z,496.00
2022-12-04T00:41:07.870Z,496.00
2022-12-04T00:41:37.883Z,499.00
2022-12-04T00:42:07.879Z,498.00
2022-12-04T00:42:37.883Z,498.00
2022-12-04T00:43:07.886Z,497.00
2022-12-04T00:43:37.892Z,498.00
2022-12-04T00:44:07.902Z,498.00
2022-12-04T00:44:37.910Z,497.00
2022-12-04T00:45:07.913Z,496.00
2022-12-04T00:45:37.951Z,496.00
2022-12-04T00:46:08.036Z,497.00
2022-12-04T00:46:37.927Z,496.00
2022-12-04T00:47:07.936Z,495.00
2022-12-04T00:47:37.942Z,494.00
2022-12-04T00:48:07.937Z,494.00
2022-12-04T00:48:37.933Z,496.00
2022-12-04T00:49:07.956Z,496.00
2022-12-04T00:49:37.956Z,496.00
2022-12-04T00:50:07.975Z,495.00
2022-12-04T00:50:37.954Z,495.00
2022-12-04T00:51:07.964Z,495.00
2022-12-04T00:51:37.974Z,494.00
2022-12-04T00:52:07.980Z,496.00
2022-12-04T00:52:37.985Z,497.00
2022-12-04T00:53:07.986Z,496.00
2022-12-04T00:53:37.990Z,496.00
2022-12-04T00:54:08.002Z,497.00
2022-12-04T00:54:38.001Z,497.00
2022-12-04T00:55:08.008Z,498.00
2022-12-04T00:55:38.009Z,497.00
2022-12-04T00:56:08.015Z,497.00
2022-12-04T00:56:38.021Z,497.00
2022-12-04T00:57:08.027Z,496.00
2022-12-04T00:57:38.033Z,498.00
2022-12-04T00:58:08.043Z,496.00
2022-12-04T00:58:38.039Z,496.00
2022-12-04T00:59:08.041Z,496.00
2022-12-04T00:59:38.040Z,496.00
2022-12-04T01:00:08.056Z,496.00
2022-12-04T01:00:38.130Z,496.00
2022-12-04T01:01:08.248Z,495.00
2022-12-04T01:01:38.238Z,496.00
2022-12-04T01:02:08.260Z,495.00
2022-12-04T01:02:38.325Z,495.00
2022-12-04T01:03:08.371Z,495.00
2022-12-04T01:03:38.375Z,496.00
2022-12-04T01:04:08.379Z,498.00
2022-12-04T01:04:38.380Z,498.00
2022-12-04T01:05:08.385Z,497.00
2022-12-04T01:05:38.408Z,496.00
2022-12-04T01:06:08.393Z,495.00
2022-12-04T01:06:38.395Z,496.00
2022-12-04T01:07:08.394Z,497.00
2022-12-04T01:07:38.435Z,495.00
2022-12-04T01:08:08.495Z,498.00
2022-12-04T01:08:38.520Z,499.00
2022-12-04T01:09:08.536Z,498.00
2022-12-04T01:09:38.536Z,502.00
2022-12-04T01:10:08.537Z,503.00
2022-12-04T01:10:38.533Z,502.00
2022-12-04T01:11:08.544Z,502.00
2022-12-04T01:11:38.549Z,503.00
2022-12-04T01:12:08.551Z,503.00
2022-12-04T01:12:38.552Z,503.00
2022-12-04T01:13:08.555Z,501.00
2022-12-04T01:13:38.582Z,501.00
2022-12-04T01:14:08.586Z,500.00
2022-12-04T01:14:38.593Z,501.00
2022-12-04T01:15:08.602Z,500.00
2022-12-04T01:15:38.596Z,499.00
2022-12-04T01:16:08.676Z,496.00
2022-12-04T01:16:38.802Z,497.00
2022-12-04T01:17:08.727Z,497.00
2022-12-04T01:17:38.729Z,495.00
2022-12-04T01:18:08.732Z,497.00
2022-12-04T01:18:38.734Z,499.00
2022-12-04T01:19:08.743Z,499.00
2022-12-04T01:19:38.752Z,498.00
2022-12-04T01:20:08.757Z,498.00
2022-12-04T01:20:38.855Z,498.00
2022-12-04T01:21:08.972Z,498.00
2022-12-04T01:21:39.027Z,498.00
2022-12-04T01:22:09.120Z,498.00
2022-12-04T01:22:39.195Z,498.00
2022-12-04T01:23:09.278Z,498.00
2022-12-04T01:23:39.363Z,499.00
2022-12-04T01:24:09.446Z,498.00
2022-12-04T01:24:39.518Z,499.00
2022-12-04T01:25:09.607Z,501.00
2022-12-04T01:25:39.696Z,504.00
2022-12-04T01:26:09.778Z,501.00
2022-12-04T01:26:39.850Z,504.00
2022-12-04T01:27:09.939Z,503.00
2022-12-04T01:27:40.025Z,504.00
2022-12-04T01:28:10.093Z,504.00
2022-12-04T01:28:40.173Z,502.00
2022-12-04T01:29:10.257Z,501.00
2022-12-04T01:29:40.338Z,500.00
2022-12-04T01:30:10.425Z,499.00
2022-12-04T01:30:40.528Z,498.00
2022-12-04T01:31:10.649Z,501.00
2022-12-04T01:31:40.594Z,498.00
2022-12-04T01:32:10.713Z,500.00
2022-12-04T01:32:40.711Z,498.00
2022-12-04T01:33:10.715Z,498.00
2022-12-04T01:33:40.720Z,501.00
2022-12-04T01:34:10.724Z,502.00
2022-12-04T01:34:40.725Z,501.00
2022-12-04T01:35:10.734Z,501.00
2022-12-04T01:35:40.740Z,502.00
2022-12-04T01:36:10.750Z,503.00
2022-12-04T01:36:40.773Z,502.00
2022-12-04T01:37:10.749Z,502.00
2022-12-04T01:37:40.759Z,500.00
2022-12-04T01:38:10.776Z,500.00
2022-12-04T01:38:40.777Z,500.00
2022-12-04T01:39:10.787Z,502.00
2022-12-04T01:39:40.787Z,502.00
2022-12-04T01:40:10.791Z,502.00
2022-12-04T01:40:40.796Z,502.00
2022-12-04T01:41:10.826Z,502.00
2022-12-04T01:41:40.813Z,503.00
2022-12-04T01:42:10.820Z,504.00
2022-12-04T01:42:40.826Z,503.00
2022-12-04T01:43:10.838Z,505.00
2022-12-04T01:43:40.840Z,504.00
2022-12-04T01:44:10.856Z,504.00
2022-12-04T01:44:40.860Z,502.00
2022-12-04T01:45:10.858Z,502.00
2022-12-04T01:45:40.948Z,503.00
2022-12-04T01:46:11.065Z,499.00
2022-12-04T01:46:41.075Z,497.00
2022-12-04T01:47:11.080Z,497.00
2022-12-04T01:47:41.098Z,499.00
2022-12-04T01:48:11.100Z,497.00
2022-12-04T01:48:41.107Z,499.00
2022-12-04T01:49:11.106Z,498.00
2022-12-04T01:49:41.112Z,498.00
2022-12-04T01:50:11.119Z,500.00
2022-12-04T01:50:41.129Z,500.00
2022-12-04T01:51:11.133Z,499.00
2022-12-04T01:51:41.139Z,498.00
2022-12-04T01:52:11.170Z,498.00
2022-12-04T01:52:41.147Z,500.00
2022-12-04T01:53:11.154Z,498.00
2022-12-04T01:53:41.160Z,499.00
2022-12-04T01:54:11.162Z,500.00
2022-12-04T01:54:41.163Z,499.00
2022-12-04T01:55:11.169Z,499.00
2022-12-04T01:55:41.172Z,501.00
2022-12-04T01:56:11.181Z,500.00
2022-12-04T01:56:41.180Z,500.00
2022-12-04T01:57:11.181Z,500.00
2022-12-04T01:57:41.184Z,499.00
2022-12-04T01:58:11.191Z,501.00
2022-12-04T01:58:41.203Z,500.00
2022-12-04T01:59:11.215Z,500.00
2022-12-04T01:59:41.221Z,499.00
2022-12-04T02:00:11.228Z,500.00
2022-12-04T02:00:41.333Z,500.00
2022-12-04T02:01:11.455Z,499.00
2022-12-04T02:01:41.386Z,498.00
2022-12-04T02:02:11.547Z,498.00
2022-12-04T02:02:41.603Z,498.00
2022-12-04T02:03:11.670Z,499.00
2022-12-04T02:03:41.582Z,498.00
2022-12-04T02:04:11.593Z,499.00
2022-12-04T02:04:41.600Z,498.00
2022-12-04T02:05:11.605Z,499.00
2022-12-04T02:05:41.628Z,500.00
2022-12-04T02:06:11.635Z,503.00
2022-12-04T02:06:41.642Z,502.00
2022-12-04T02:07:11.647Z,501.00
2022-12-04T02:07:41.764Z,500.00
2022-12-04T02:08:11.798Z,497.00
2022-12-04T02:08:41.786Z,497.00
2022-12-04T02:09:11.792Z,498.00
2022-12-04T02:09:41.802Z,497.00
2022-12-04T02:10:11.807Z,498.00
2022-12-04T02:10:41.811Z,499.00
2022-12-04T02:11:11.826Z,501.00
2022-12-04T02:11:41.822Z,501.00
2022-12-04T02:12:11.824Z,501.00
2022-12-04T02:12:41.825Z,499.00
2022-12-04T02:13:11.830Z,503.00
2022-12-04T02:13:41.839Z,502.00
2022-12-04T02:14:11.895Z,500.00
2022-12-04T02:14:41.891Z,500.00
2022-12-04T02:15:11.897Z,500.00
2022-12-04T02:15:41.899Z,499.00
2022-12-04T02:16:12.020Z,497.00
2022-12-04T02:16:42.000Z,496.00
2022-12-04T02:17:11.913Z,494.00
2022-12-04T02:17:41.917Z,495.00
2022-12-04T02:18:11.932Z,496.00
2022-12-04T02:18:41.928Z,496.00
2022-12-04T02:19:11.989Z,498.00
2022-12-04T02:19:41.969Z,497.00
2022-12-04T02:20:11.977Z,497.00
2022-12-04T02:20:42.051Z,496.00
2022-12-04T02:21:12.136Z,495.00
2022-12-04T02:21:42.232Z,495.00
2022-12-04T02:22:12.319Z,495.00
2022-12-04T02:22:42.409Z,495.00
2022-12-04T02:23:12.521Z,496.00
2022-12-04T02:23:42.561Z,497.00
2022-12-04T02:24:12.684Z,496.00
2022-12-04T02:24:46.843Z,494.00
2022-12-04T02:25:12.829Z,494.00
2022-12-04T02:25:42.909Z,493.00
2022-12-04T02:26:13.001Z,493.00
2022-12-04T02:26:43.086Z,493.00
2022-12-04T02:27:13.189Z,492.00
2022-12-04T02:27:43.262Z,492.00
2022-12-04T02:28:13.342Z,492.00
2022-12-04T02:28:43.428Z,490.00
2022-12-04T02:29:13.610Z,487.00
2022-12-04T02:29:43.577Z,489.00
2022-12-04T02:30:13.661Z,488.00
2022-12-04T02:30:43.703Z,486.00
2022-12-04T02:31:13.811Z,486.00
2022-12-04T02:31:43.738Z,487.00
2022-12-04T02:32:13.747Z,487.00
2022-12-04T02:32:43.752Z,486.00
2022-12-04T02:33:13.759Z,488.00
2022-12-04T02:33:43.764Z,486.00
2022-12-04T02:34:13.797Z,485.00
2022-12-04T02:34:43.795Z,485.00
2022-12-04T02:35:13.795Z,486.00
2022-12-04T02:35:43.799Z,488.00
2022-12-04T02:36:13.842Z,488.00
2022-12-04T02:36:43.847Z,490.00
2022-12-04T02:37:13.850Z,487.00
2022-12-04T02:37:43.854Z,488.00
2022-12-04T02:38:13.860Z,485.00
2022-12-04T02:38:43.887Z,489.00
2022-12-04T02:39:13.866Z,492.00
2022-12-04T02:39:43.877Z,493.00
2022-12-04T02:40:13.880Z,493.00
2022-12-04T02:40:43.878Z,494.00
2022-12-04T02:41:13.900Z,493.00
2022-12-04T02:41:43.904Z,493.00
2022-12-04T02:42:13.906Z,490.00
2022-12-04T02:42:43.911Z,490.00
2022-12-04T02:43:13.920Z,491.00
2022-12-04T02:43:43.920Z,490.00
2022-12-04T02:44:13.924Z,492.00
2022-12-04T02:44:43.924Z,492.00
2022-12-04T02:45:13.933Z,492.00
2022-12-04T02:45:44.014Z,494.00
2022-12-04T02:46:14.295Z,494.00
2022-12-04T02:46:44.058Z,494.00
2022-12-04T02:47:14.066Z,494.00
2022-12-04T02:47:44.069Z,494.00
2022-12-04T02:48:14.077Z,493.00
2022-12-04T02:48:44.096Z,493.00
2022-12-04T02:49:14.100Z,492.00
2022-12-04T02:49:44.101Z,492.00
2022-12-04T02:50:14.108Z,491.00
2022-12-04T02:50:44.110Z,491.00
2022-12-04T02:51:14.120Z,490.00
2022-12-04T02:51:44.136Z,488.00
2022-12-04T02:52:14.143Z,489.00
2022-12-04T02:52:44.152Z,489.00
2022-12-04T02:53:14.148Z,490.00
2022-12-04T02:53:44.150Z,491.00
2022-12-04T02:54:14.186Z,488.00
2022-12-04T02:54:44.165Z,488.00
2022-12-04T02:55:14.173Z,490.00
2022-12-04T02:55:44.176Z,491.00
2022-12-04T02:56:14.186Z,491.00
2022-12-04T02:56:44.182Z,490.00
2022-12-04T02:57:14.223Z,490.00
2022-12-04T02:57:44.187Z,488.00
2022-12-04T02:58:14.201Z,488.00
2022-12-04T02:58:44.204Z,488.00
2022-12-04T02:59:14.212Z,487.00
2022-12-04T02:59:44.238Z,485.00
2022-12-04T03:00:14.268Z,485.00
2022-12-04T03:00:44.247Z,487.00
2022-12-04T03:01:14.356Z,489.00
2022-12-04T03:01:44.431Z,489.00
2022-12-04T03:02:14.472Z,489.00
2022-12-04T03:02:44.605Z,490.00
2022-12-04T03:03:14.542Z,491.00
2022-12-04T03:03:44.546Z,491.00
2022-12-04T03:04:14.553Z,493.00
2022-12-04T03:04:44.593Z,491.00
2022-12-04T03:05:14.596Z,490.00
2022-12-04T03:05:44.601Z,490.00
2022-12-04T03:06:14.606Z,488.00
2022-12-04T03:06:44.620Z,487.00
2022-12-04T03:07:14.616Z,487.00
2022-12-04T03:07:44.656Z,489.00
2022-12-04T03:08:14.697Z,487.00
2022-12-04T03:08:44.639Z,489.00
2022-12-04T03:09:14.645Z,491.00
2022-12-04T03:09:44.670Z,491.00
2022-12-04T03:10:14.653Z,492.00
2022-12-04T03:10:44.661Z,492.00
2022-12-04T03:11:14.663Z,493.00
2022-12-04T03:11:44.677Z,493.00
2022-12-04T03:12:14.685Z,495.00
2022-12-04T03:12:44.692Z,492.00
2022-12-04T03:13:14.693Z,493.00
2022-12-04T03:13:44.704Z,493.00
2022-12-04T03:14:14.714Z,492.00
2022-12-04T03:14:44.713Z,491.00
2022-12-04T03:15:14.723Z,489.00
2022-12-04T03:15:44.728Z,488.00
2022-12-04T03:16:14.796Z,490.00
2022-12-04T03:16:44.880Z,489.00
2022-12-04T03:17:14.958Z,488.00
2022-12-04T03:17:44.879Z,488.00
2022-12-04T03:18:14.880Z,488.00
2022-12-04T03:18:44.882Z,489.00
2022-12-04T03:19:14.886Z,489.00
2022-12-04T03:19:44.921Z,491.00
2022-12-04T03:20:14.961Z,491.00
2022-12-04T03:20:44.925Z,492.00
2022-12-04T03:21:15.010Z,490.00
2022-12-04T03:21:45.093Z,492.00
2022-12-04T03:22:15.175Z,491.00
2022-12-04T03:22:45.263Z,488.00
2022-12-04T03:23:15.286Z,490.00
2022-12-04T03:23:45.376Z,490.00
2022-12-04T03:24:15.455Z,489.00
2022-12-04T03:24:45.540Z,491.00
2022-12-04T03:25:15.687Z,492.00
2022-12-04T03:25:45.658Z,492.00
2022-12-04T03:26:15.763Z,490.00
2022-12-04T03:26:45.824Z,490.00
2022-12-04T03:27:15.912Z,490.00
2022-12-04T03:27:46.012Z,487.00
2022-12-04T03:28:16.083Z,489.00
2022-12-04T03:28:46.164Z,490.00
2022-12-04T03:29:16.252Z,487.00
2022-12-04T03:29:46.328Z,485.00
2022-12-04T03:30:16.431Z,484.00
2022-12-04T03:30:46.497Z,483.00
2022-12-04T03:31:16.506Z,486.00
2022-12-04T03:31:46.560Z,486.00
2022-12-04T03:32:16.558Z,486.00
2022-12-04T03:32:46.579Z,485.00
2022-12-04T03:33:16.590Z,485.00
2022-12-04T03:33:46.594Z,484.00
2022-12-04T03:34:16.590Z,482.00
2022-12-04T03:34:46.608Z,485.00
2022-12-04T03:35:16.614Z,485.00
2022-12-04T03:35:46.639Z,487.00
2022-12-04T03:36:16.647Z,490.00
2022-12-04T03:36:46.655Z,488.00
2022-12-04T03:37:16.652Z,489.00
2022-12-04T03:37:46.656Z,489.00
2022-12-04T03:38:16.660Z,488.00
2022-12-04T03:38:46.667Z,487.00
2022-12-04T03:39:16.676Z,487.00
2022-12-04T03:39:46.664Z,489.00
2022-12-04T03:40:16.684Z,490.00
2022-12-04T03:40:46.714Z,491.00
2022-12-04T03:41:16.689Z,490.00
2022-12-04T03:41:49.972Z,491.00
2022-12-04T03:42:16.763Z,494.00
2022-12-04T03:42:46.775Z,495.00
2022-12-04T03:43:16.794Z,494.00
2022-12-04T03:43:46.799Z,494.00
2022-12-04T03:44:16.800Z,492.00
2022-12-04T03:44:46.801Z,493.00
2022-12-04T03:45:16.807Z,494.00
2022-12-04T03:45:46.908Z,494.00
2022-12-04T03:46:17.022Z,496.00
2022-12-04T03:46:46.941Z,494.00
2022-12-04T03:47:16.943Z,495.00
2022-12-04T03:47:46.952Z,494.00
2022-12-04T03:48:22.710Z,494.00
2022-12-04T03:48:47.068Z,491.00
2022-12-04T03:49:17.078Z,490.00
2022-12-04T03:49:47.080Z,490.00
2022-12-04T03:50:17.091Z,491.00
2022-12-04T03:50:47.107Z,490.00
2022-12-04T03:51:17.103Z,491.00
2022-12-04T03:51:47.114Z,493.00
2022-12-04T03:52:17.115Z,494.00
2022-12-04T03:52:47.127Z,492.00
2022-12-04T03:53:17.137Z,493.00
2022-12-04T03:53:47.134Z,492.00
2022-12-04T03:54:17.128Z,492.00
2022-12-04T03:54:47.141Z,493.00
2022-12-04T03:55:17.141Z,493.00
2022-12-04T03:55:47.171Z,493.00
2022-12-04T03:56:17.179Z,492.00
2022-12-04T03:56:47.162Z,491.00
2022-12-04T03:57:17.163Z,492.00
2022-12-04T03:57:47.175Z,491.00
2022-12-04T03:58:17.184Z,490.00
2022-12-04T03:58:47.184Z,490.00
2022-12-04T03:59:17.192Z,491.00
2022-12-04T03:59:49.904Z,490.00
2022-12-04T04:00:17.299Z,491.00
2022-12-04T04:00:47.312Z,492.00
2022-12-04T04:01:17.434Z,492.00
2022-12-04T04:01:47.387Z,490.00
2022-12-04T04:02:17.506Z,492.00
2022-12-04T04:02:47.537Z,492.00
2022-12-04T04:03:17.432Z,492.00
2022-12-04T04:03:47.437Z,492.00
2022-12-04T04:04:17.437Z,493.00
2022-12-04T04:04:47.454Z,491.00
2022-12-04T04:05:17.586Z,489.00
2022-12-04T04:05:47.566Z,491.00
2022-12-04T04:06:17.563Z,490.00
2022-12-04T04:06:47.568Z,492.00
2022-12-04T04:07:17.580Z,491.00
2022-12-04T04:07:47.711Z,491.00
2022-12-04T04:08:17.904Z,491.00
2022-12-04T04:08:47.657Z,491.00
2022-12-04T04:09:17.677Z,490.00
2022-12-04T04:09:47.675Z,491.00
2022-12-04T04:10:17.683Z,489.00
2022-12-04T04:10:47.687Z,490.00
2022-12-04T04:11:17.693Z,489.00
2022-12-04T04:11:47.729Z,491.00
2022-12-04T04:12:17.701Z,492.00
2022-12-04T04:12:47.717Z,493.00
2022-12-04T04:13:17.713Z,491.00
2022-12-04T04:13:47.724Z,492.00
2022-12-04T04:14:17.719Z,491.00
2022-12-04T04:14:47.734Z,490.00
2022-12-04T04:15:17.744Z,489.00
2022-12-04T04:15:47.788Z,490.00
2022-12-04T04:16:17.882Z,490.00
2022-12-04T04:16:47.787Z,489.00
2022-12-04T04:17:17.781Z,490.00
2022-12-04T04:17:47.786Z,489.00
2022-12-04T04:18:17.794Z,488.00
2022-12-04T04:18:47.785Z,486.00
2022-12-04T04:19:17.791Z,488.00
2022-12-04T04:19:47.804Z,486.00
2022-12-04T04:20:17.811Z,485.00
2022-12-04T04:20:47.897Z,482.00
2022-12-04T04:21:17.978Z,481.00
2022-12-04T04:21:48.061Z,480.00
2022-12-04T04:22:18.144Z,482.00
2022-12-04T04:22:51.650Z,481.00
2022-12-04T04:23:18.292Z,483.00
2022-12-04T04:23:48.382Z,484.00
2022-12-04T04:24:18.473Z,484.00
2022-12-04T04:24:48.554Z,484.00
2022-12-04T04:25:18.625Z,485.00
2022-12-04T04:25:48.703Z,484.00
2022-12-04T04:26:18.785Z,485.00
2022-12-04T04:26:48.864Z,486.00
2022-12-04T04:27:18.979Z,488.00
2022-12-04T04:27:49.031Z,490.00
2022-12-04T04:28:19.113Z,487.00
2022-12-04T04:28:49.188Z,489.00
2022-12-04T04:29:19.268Z,490.00
2022-12-04T04:29:52.555Z,490.00
2022-12-04T04:30:19.418Z,491.00
2022-12-04T04:30:49.501Z,490.00
2022-12-04T04:31:19.569Z,490.00
2022-12-04T04:31:49.592Z,490.00
2022-12-04T04:32:19.593Z,489.00
2022-12-04T04:32:49.600Z,489.00
2022-12-04T04:33:19.617Z,490.00
2022-12-04T04:33:49.627Z,489.00
2022-12-04T04:34:19.624Z,489.00
2022-12-04T04:34:49.626Z,489.00
2022-12-04T04:35:19.633Z,489.00
2022-12-04T04:35:49.643Z,488.00
2022-12-04T04:36:19.656Z,485.00
2022-12-04T04:36:49.666Z,485.00
2022-12-04T04:37:19.663Z,488.00
2022-12-04T04:37:49.668Z,488.00
2022-12-04T04:38:19.676Z,487.00
2022-12-04T04:38:49.679Z,487.00
2022-12-04T04:39:19.682Z,487.00
2022-12-04T04:39:49.683Z,486.00
2022-12-04T04:40:19.701Z,484.00
2022-12-04T04:40:49.706Z,485.00
2022-12-04T04:41:19.708Z,486.00
2022-12-04T04:41:49.705Z,486.00
2022-12-04T04:42:19.716Z,486.00
2022-12-04T04:42:49.737Z,487.00
2022-12-04T04:43:19.723Z,487.00
2022-12-04T04:43:49.733Z,486.00
2022-12-04T04:44:19.738Z,489.00
2022-12-04T04:44:49.744Z,488.00
2022-12-04T04:45:19.742Z,488.00
2022-12-04T04:45:49.749Z,488.00
2022-12-04T04:46:19.798Z,488.00
2022-12-04T04:46:49.910Z,486.00
2022-12-04T04:47:19.938Z,488.00
2022-12-04T04:47:49.977Z,489.00
2022-12-04T04:48:19.960Z,489.00
2022-12-04T04:48:49.966Z,492.00
2022-12-04T04:49:19.969Z,490.00
2022-12-04T04:49:50.079Z,491.00
2022-12-04T04:50:20.081Z,489.00
2022-12-04T04:50:50.096Z,487.00
2022-12-04T04:51:20.097Z,487.00
2022-12-04T04:51:50.095Z,488.00
2022-12-04T04:52:20.097Z,487.00
2022-12-04T04:52:50.101Z,488.00
2022-12-04T04:53:20.118Z,486.00
2022-12-04T04:53:50.146Z,488.00
2022-12-04T04:54:20.146Z,489.00
2022-12-04T04:54:50.146Z,489.00
2022-12-04T04:55:20.150Z,489.00
2022-12-04T04:55:50.174Z,490.00
2022-12-04T04:56:20.184Z,490.00
2022-12-04T04:56:50.184Z,489.00
2022-12-04T04:57:20.181Z,489.00
2022-12-04T04:57:50.188Z,491.00
2022-12-04T04:58:20.221Z,491.00
2022-12-04T04:58:50.205Z,491.00
2022-12-04T04:59:20.200Z,491.00
2022-12-04T04:59:50.204Z,492.00
2022-12-04T05:00:20.207Z,490.00
2022-12-04T05:00:50.217Z,490.00
2022-12-04T05:01:20.261Z,489.00
2022-12-04T05:01:50.334Z,488.00
2022-12-04T05:02:20.345Z,489.00
2022-12-04T05:02:50.553Z,487.00
2022-12-04T05:03:20.493Z,487.00
2022-12-04T05:03:50.518Z,488.00
2022-12-04T05:04:20.519Z,490.00
2022-12-04T05:04:50.528Z,491.00
2022-12-04T05:05:20.537Z,491.00
2022-12-04T05:05:50.536Z,490.00
2022-12-04T05:06:20.546Z,489.00
2022-12-04T05:06:50.562Z,490.00
2022-12-04T05:07:20.567Z,490.00
2022-12-04T05:07:50.623Z,489.00
2022-12-04T05:08:20.693Z,487.00
2022-12-04T05:08:50.688Z,488.00
2022-12-04T05:09:20.690Z,488.00
2022-12-04T05:09:50.707Z,489.00
2022-12-04T05:10:20.716Z,487.00
2022-12-04T05:10:50.721Z,489.00
2022-12-04T05:11:20.733Z,489.00
2022-12-04T05:11:50.729Z,486.00
2022-12-04T05:12:20.746Z,487.00
2022-12-04T05:12:50.748Z,486.00
2022-12-04T05:13:20.748Z,484.00
2022-12-04T05:13:50.788Z,484.00
2022-12-04T05:14:20.766Z,486.00
2022-12-04T05:14:50.782Z,486.00
2022-12-04T05:15:20.788Z,485.00
2022-12-04T05:15:50.824Z,487.00
2022-12-04T05:16:20.973Z,488.00
2022-12-04T05:16:50.909Z,487.00
2022-12-04T05:17:20.917Z,487.00
2022-12-04T05:17:50.921Z,488.00
2022-12-04T05:18:20.925Z,488.00
2022-12-04T05:18:50.924Z,488.00
2022-12-04T05:19:20.946Z,489.00
2022-12-04T05:19:50.947Z,490.00
2022-12-04T05:20:20.945Z,489.00
2022-12-04T05:20:51.023Z,490.00
2022-12-04T05:21:21.107Z,491.00
2022-12-04T05:21:51.192Z,489.00
2022-12-04T05:22:21.279Z,490.00
2022-12-04T05:22:51.362Z,489.00
2022-12-04T05:23:21.447Z,489.00
2022-12-04T05:23:51.528Z,487.00
2022-12-04T05:24:21.613Z,488.00
2022-12-04T05:24:51.718Z,487.00
2022-12-04T05:25:21.797Z,488.00
2022-12-04T05:25:51.873Z,488.00
2022-12-04T05:26:21.948Z,488.00
2022-12-04T05:26:52.037Z,487.00
2022-12-04T05:27:22.111Z,487.00
2022-12-04T05:27:52.189Z,489.00
2022-12-04T05:28:22.266Z,490.00
2022-12-04T05:28:52.360Z,491.00
2022-12-04T05:29:22.472Z,491.00
2022-12-04T05:29:52.721Z,495.00
2022-12-04T05:30:22.599Z,497.00
2022-12-04T05:30:52.630Z,497.00
2022-12-04T05:31:22.722Z,498.00
2022-12-04T05:31:52.635Z,497.00
2022-12-04T05:32:22.641Z,497.00
2022-12-04T05:32:52.632Z,494.00
2022-12-04T05:33:22.652Z,493.00
2022-12-04T05:33:52.672Z,493.00
2022-12-04T05:34:22.660Z,492.00
2022-12-04T05:34:52.669Z,491.00
2022-12-04T05:35:22.696Z,492.00
2022-12-04T05:35:52.694Z,492.00
2022-12-04T05:36:22.713Z,491.00
2022-12-04T05:36:52.717Z,492.00
2022-12-04T05:37:22.719Z,491.00
2022-12-04T05:37:52.722Z,490.00
2022-12-04T05:38:22.728Z,490.00
2022-12-04T05:38:52.738Z,490.00
2022-12-04T05:39:22.738Z,489.00
2022-12-04T05:39:52.965Z,489.00
2022-12-04T05:40:22.793Z,491.00
2022-12-04T05:40:52.781Z,492.00
2022-12-04T05:41:22.789Z,492.00
2022-12-04T05:41:52.797Z,491.00
2022-12-04T05:42:22.798Z,490.00
2022-12-04T05:42:52.804Z,489.00
2022-12-04T05:43:22.820Z,490.00
2022-12-04T05:43:52.809Z,489.00
2022-12-04T05:44:22.823Z,489.00
2022-12-04T05:44:52.880Z,489.00
2022-12-04T05:45:22.860Z,488.00
2022-12-04T05:45:52.863Z,487.00
2022-12-04T05:46:22.941Z,487.00
2022-12-04T05:46:53.053Z,488.00
2022-12-04T05:47:22.990Z,487.00
2022-12-04T05:47:52.998Z,488.00
2022-12-04T05:48:23.000Z,489.00
2022-12-04T05:48:52.999Z,489.00
2022-12-04T05:49:23.004Z,490.00
2022-12-04T05:49:53.287Z,488.00
2022-12-04T05:50:23.108Z,488.00
2022-12-04T05:50:53.113Z,488.00
2022-12-04T05:51:23.112Z,488.00
2022-12-04T05:51:53.112Z,489.00
2022-12-04T05:52:23.117Z,490.00
2022-12-04T05:52:53.120Z,491.00
2022-12-04T05:53:23.135Z,492.00
2022-12-04T05:53:53.145Z,492.00
2022-12-04T05:54:23.144Z,492.00
2022-12-04T05:54:53.147Z,491.00
2022-12-04T05:55:23.151Z,493.00
2022-12-04T05:55:53.156Z,491.00
2022-12-04T05:56:23.172Z,491.00
2022-12-04T05:56:53.176Z,490.00
2022-12-04T05:57:25.543Z,489.00
2022-12-04T05:57:53.185Z,489.00
2022-12-04T05:58:23.191Z,490.00
2022-12-04T05:58:53.203Z,493.00
2022-12-04T05:59:23.202Z,492.00
2022-12-04T05:59:53.572Z,494.00
2022-12-04T06:00:23.297Z,493.00
2022-12-04T06:00:53.278Z,492.00
2022-12-04T06:01:23.287Z,491.00
2022-12-04T06:01:53.367Z,490.00
2022-12-04T06:02:23.509Z,490.00
2022-12-04T06:02:53.538Z,490.00
2022-12-04T06:03:23.683Z,491.00
2022-12-04T06:03:53.594Z,493.00
2022-12-04T06:04:23.707Z,493.00
2022-12-04T06:04:53.720Z,493.00
2022-12-04T06:05:23.725Z,494.00
2022-12-04T06:05:53.726Z,493.00
2022-12-04T06:06:23.728Z,495.00
2022-12-04T06:06:53.733Z,495.00
2022-12-04T06:07:23.732Z,496.00
2022-12-04T06:07:53.819Z,496.00
2022-12-04T06:08:23.838Z,495.00
2022-12-04T06:08:53.841Z,497.00
2022-12-04T06:09:23.847Z,495.00
2022-12-04T06:09:54.422Z,496.00
2022-12-04T06:10:23.903Z,498.00
2022-12-04T06:10:53.906Z,500.00
2022-12-04T06:11:23.925Z,501.00
2022-12-04T06:11:53.917Z,498.00
2022-12-04T06:12:23.919Z,499.00
2022-12-04T06:12:53.926Z,499.00
2022-12-04T06:13:23.933Z,498.00
2022-12-04T06:13:53.943Z,497.00
2022-12-04T06:14:23.943Z,495.00
2022-12-04T06:14:53.967Z,496.00